Time;durP1;ratioP1;P1;durP2;ratioP2;P2;SDS_P1;SDS_P2;PMS_P1;PMS_P2;Temp;Humidity;BMP_temperature;BMP_pressure;BME280_temperature;BME280_humidity;BME280_pressure;Samples;Min_cycle;Max_cycle;Signal;HPM_P1;HPM_P2
2022/01/29 00:00:20;;;;;;;;;;;;;;;;;;1038670;28;1022;-42
2022/01/29 00:00:50;;;;;;;;;;;;;;;;;;1038748;28;957;-41
2022/01/29 00:01:20;;;;;;;;;;;;;;;;;;1038854;28;843;-41
2022/01/29 00:01:51;;;;;;;;;;;;;;;;;;1038726;28;940;-41
2022/01/29 00:02:22;;;;;;;;;;;;;;;;;;1038820;28;906;-41
2022/01/29 00:02:52;;;;;;;;;;;;;;;;;;1038796;28;1075;-42
2022/01/29 00:03:22;;;;;;;;;;;;;;;;;;1034173;28;930;-41
2022/01/29 00:03:53;;;;;;;;;;;;;;;;;;1034515;28;889;-41
2022/01/29 00:04:23;;;;;;;;;;;;;;;;;;1034371;28;1056;-41
2022/01/29 00:04:53;;;;;;;;;;;;;;;;;;1034341;28;937;-41
2022/01/29 00:05:24;;;;;;;;;;;;;;;;;;1038781;28;921;-41
2022/01/29 00:05:56;;;;;;;;;;;;;;;;;;1038689;28;901;-42
2022/01/29 00:06:26;;;;;;;;;;;;;;;;;;1038909;28;775;-42
2022/01/29 00:06:56;;;;;;;;;;;;;;;;;;1038758;28;1032;-42
2022/01/29 00:07:27;;;;;;;;;;;;;;;;;;1038534;28;1057;-42
2022/01/29 00:07:57;;;;;;;;;;;;;;;;;;1039114;28;895;-42
2022/01/29 00:08:28;;;;;;;;;;;;;;;;;;1038672;28;882;-42
2022/01/29 00:08:58;;;;;;;;;;;;;;;;;;1038871;28;811;-42
2022/01/29 00:09:28;;;;;;;;;;;;;;;;;;1038758;28;997;-42
2022/01/29 00:10:03;;;;;;;;;;;;;;;;;;1038619;28;1028;-42
2022/01/29 00:10:33;;;;;;;;;;;;;;;;;;1038667;28;910;-42
2022/01/29 00:11:11;;;;;;;;;;;;;;;;;;1034419;28;1173;-42
2022/01/29 00:11:44;;;;;;;;;;;;;;;;;;1034123;28;998;-40
2022/01/29 00:12:15;;;;;;;;;;;;;;;;;;1034339;28;963;-42
2022/01/29 00:12:45;;;;;;;;;;;;;;;;;;1035952;28;842;-42
2022/01/29 00:13:16;;;;;;;;;;;;;;;;;;1038669;28;866;-41
2022/01/29 00:13:46;;;;;;;;;;;;;;;;;;1038798;28;926;-42
2022/01/29 00:14:16;;;;;;;;;;;;;;;;;;1038705;28;941;-42
2022/01/29 00:14:47;;;;;;;;;;;;;;;;;;1038777;28;945;-42
2022/01/29 00:15:17;;;;;;;;;;;;;;;;;;1038880;28;897;-41
2022/01/29 00:15:47;;;;;;;;;;;;;;;;;;1038555;28;953;-42
2022/01/29 00:16:18;;;;;;;;;;;;;;;;;;1038882;28;1252;-42
2022/01/29 00:16:48;;;;;;;;;;;;;;;;;;1038705;28;973;-42
2022/01/29 00:17:18;;;;;;;;;;;;;;;;;;1038797;28;926;-42
2022/01/29 00:17:49;;;;;;;;;;;;;;;;;;1038826;28;1906;-42
2022/01/29 00:18:19;;;;;;;;;;;;;;;;;;1038587;28;915;-42
2022/01/29 00:18:49;;;;;;;;;;;;;;;;;;1038909;28;819;-41
2022/01/29 00:19:20;;;;;;;;;;;;;;;;;;1038783;28;827;-41
2022/01/29 00:19:50;;;;;;;;;;;;;;;;;;1038810;28;921;-41
2022/01/29 00:20:20;;;;;;;;;;;;;;;;;;1038678;28;949;-42
2022/01/29 00:20:51;;;;;;;;;;;;;;;;;;1038499;28;954;-41
2022/01/29 00:21:21;;;;;;;;;;;;;;;;;;1038979;28;1696;-41
2022/01/29 00:21:52;;;;;;;;;;;;;;;;;;1038601;28;986;-41
2022/01/29 00:22:22;;;;;;;;;;;;;;;;;;1038772;28;833;-41
2022/01/29 00:22:53;;;;;;;;;;;;;;;;;;1038715;28;1139;-41
2022/01/29 00:23:23;;;;;;;;;;;;;;;;;;1038720;28;889;-41
2022/01/29 00:23:54;;;;;;;;;;;;;;;;;;1038869;28;894;-41
2022/01/29 00:24:24;;;;;;;;;;;;;;;;;;1040267;28;1050;-41
2022/01/29 00:24:57;;;;;;;;;;;;;;;;;;1042841;28;1735;-41
2022/01/29 00:25:27;;;;;;;;;;;;;;;;;;1043503;28;878;-41
2022/01/29 00:25:59;;;;;;;;;;;;;;;;;;1043545;28;866;-42
2022/01/29 00:26:29;;;;;;;;;;;;;;;;;;1043553;28;782;-41
2022/01/29 00:27:03;;;;;;;;;;;;;;;;;;1043765;28;877;-41
2022/01/29 00:27:35;;;;;;;;;;;;;;;;;;1043395;28;893;-40
2022/01/29 00:28:08;;;;;;;;;;;;;;;;;;1043525;28;1106;-41
2022/01/29 00:28:39;;;;;;;;;;;;;;;;;;1043617;28;1025;-41
2022/01/29 00:29:17;;;;;;;;;;;;;;;;;;1043483;28;1048;-41
2022/01/29 00:29:48;;;;;;;;;;;;;;;;;;1043718;28;921;-41
2022/01/29 00:30:18;;;;;;;;;;;;;;;;;;1043739;28;949;-42
2022/01/29 00:30:49;;;;;;;;;;;;;;;;;;1038613;28;886;-41
2022/01/29 00:31:19;;;;;;;;;;;;;;;;;;1039461;28;893;-41
2022/01/29 00:31:50;;;;;;;;;;;;;;;;;;1038948;28;998;-41
2022/01/29 00:32:20;;;;;;;;;;;;;;;;;;1039244;28;838;-41
2022/01/29 00:32:50;;;;;;;;;;;;;;;;;;1043569;28;896;-41
2022/01/29 00:33:20;;;;;;;;;;;;;;;;;;1043469;28;909;-41
2022/01/29 00:33:51;;;;;;;;;;;;;;;;;;1043781;28;932;-41
2022/01/29 00:34:21;;;;;;;;;;;;;;;;;;1043625;28;976;-41
2022/01/29 00:34:53;;;;;;;;;;;;;;;;;;1043373;28;826;-41
2022/01/29 00:35:23;;;;;;;;;;;;;;;;;;1043890;28;1229;-41
2022/01/29 00:35:54;;;;;;;;;;;;;;;;;;1038837;28;902;-41
2022/01/29 00:36:24;;;;;;;;;;;;;;;;;;1039367;28;940;-41
2022/01/29 00:36:54;;;;;;;;;;;;;;;;;;1039011;28;1082;-42
2022/01/29 00:37:25;;;;;;;;;;;;;;;;;;1039162;28;893;-41
2022/01/29 00:37:55;;;;;;;;;;;;;;;;;;1043595;28;1906;-41
2022/01/29 00:38:26;;;;;;;;;;;;;;;;;;1039041;28;954;-41
2022/01/29 00:38:56;;;;;;;;;;;;;;;;;;1039095;28;810;-41
2022/01/29 00:39:26;;;;;;;;;;;;;;;;;;1039325;28;973;-42
2022/01/29 00:39:57;;;;;;;;;;;;;;;;;;1038840;28;1000;-41
2022/01/29 00:40:28;;;;;;;;;;;;;;;;;;1043730;28;1028;-41
2022/01/29 00:40:58;;;;;;;;;;;;;;;;;;1043309;28;1123;-41
2022/01/29 00:41:28;;;;;;;;;;;;;;;;;;1043678;28;806;-42
2022/01/29 00:41:58;;;;;;;;;;;;;;;;;;1043666;28;1092;-41
2022/01/29 00:42:29;;;;;;;;;;;;;;;;;;1043446;28;982;-41
2022/01/29 00:42:59;;;;;;;;;;;;;;;;;;1043610;28;1677;-41
2022/01/29 00:43:30;;;;;;;;;;;;;;;;;;1043502;28;1360;-41
2022/01/29 00:44:00;;;;;;;;;;;;;;;;;;1043482;28;981;-41
2022/01/29 00:44:30;;;;;;;;;;;;;;;;;;1043818;28;1018;-41
2022/01/29 00:45:01;;;;;;;;;;;;;;;;;;1043225;28;950;-41
2022/01/29 00:45:32;;;;;;;;;;;;;;;;;;1043685;28;890;-41
2022/01/29 00:46:02;;;;;;;;;;;;;;;;;;1043610;28;1038;-41
2022/01/29 00:46:33;;;;;;;;;;;;;;;;;;1043369;28;862;-41
2022/01/29 00:47:03;;;;;;;;;;;;;;;;;;1043719;28;913;-41
2022/01/29 00:47:33;;;;;;;;;;;;;;;;;;1043255;28;1038;-41
2022/01/29 00:48:04;;;;;;;;;;;;;;;;;;1043777;28;858;-41
2022/01/29 00:48:34;;;;;;;;;;;;;;;;;;1043458;28;977;-41
2022/01/29 00:49:04;;;;;;;;;;;;;;;;;;1043521;28;861;-41
2022/01/29 00:49:35;;;;;;;;;;;;;;;;;;1043508;28;858;-42
2022/01/29 00:50:06;;;;;;;;;;;;;;;;;;1043500;28;930;-42
2022/01/29 00:50:36;;;;;;;;;;;;;;;;;;1043321;28;981;-42
2022/01/29 00:51:07;;;;;;;;;;;;;;;;;;1043663;28;988;-42
2022/01/29 00:51:37;;;;;;;;;;;;;;;;;;1043258;28;906;-41
2022/01/29 00:52:08;;;;;;;;;;;;;;;;;;1043723;28;993;-42
2022/01/29 00:52:38;;;;;;;;;;;;;;;;;;1043305;28;956;-42
2022/01/29 00:53:08;;;;;;;;;;;;;;;;;;1043574;28;926;-42
2022/01/29 00:53:39;;;;;;;;;;;;;;;;;;1043530;28;1071;-42
2022/01/29 00:54:09;;;;;;;;;;;;;;;;;;1043430;28;937;-42
2022/01/29 00:54:39;;;;;;;;;;;;;;;;;;1043632;28;950;-42
2022/01/29 00:55:10;;;;;;;;;;;;;;;;;;1043472;28;992;-42
2022/01/29 00:55:41;;;;;;;;;;;;;;;;;;1043361;28;1235;-42
2022/01/29 00:56:12;;;;;;;;;;;;;;;;;;1043661;28;921;-41
2022/01/29 00:56:42;;;;;;;;;;;;;;;;;;1043429;28;886;-42
2022/01/29 00:57:12;;;;;;;;;;;;;;;;;;1043547;28;1084;-41
2022/01/29 00:57:43;;;;;;;;;;;;;;;;;;1043446;28;1911;-42
2022/01/29 00:58:13;;;;;;;;;;;;;;;;;;1043335;28;846;-42
2022/01/29 00:58:43;;;;;;;;;;;;;;;;;;1043602;28;929;-41
2022/01/29 00:59:14;;;;;;;;;;;;;;;;;;1039294;28;1121;-42
2022/01/29 00:59:44;;;;;;;;;;;;;;;;;;1039457;28;886;-41
2022/01/29 01:00:15;;;;;;;;;;;;;;;;;;1039382;28;1107;-42
2022/01/29 01:00:46;;;;;;;;;;;;;;;;;;1039166;28;882;-42
2022/01/29 01:01:16;;;;;;;;;;;;;;;;;;1039460;28;1079;-41
2022/01/29 01:01:47;;;;;;;;;;;;;;;;;;1039273;28;1035;-42
2022/01/29 01:02:17;;;;;;;;;;;;;;;;;;1039281;28;1029;-41
2022/01/29 01:02:47;;;;;;;;;;;;;;;;;;1039477;28;942;-41
2022/01/29 01:03:18;;;;;;;;;;;;;;;;;;1039297;28;964;-42
2022/01/29 01:03:48;;;;;;;;;;;;;;;;;;1039365;28;992;-41
2022/01/29 01:04:18;;;;;;;;;;;;;;;;;;1039224;28;956;-42
2022/01/29 01:04:49;;;;;;;;;;;;;;;;;;1039367;28;941;-41
2022/01/29 01:05:19;;;;;;;;;;;;;;;;;;1039442;28;1053;-41
2022/01/29 01:05:50;;;;;;;;;;;;;;;;;;1039230;28;1017;-41
2022/01/29 01:06:20;;;;;;;;;;;;;;;;;;1039401;28;908;-41
2022/01/29 01:06:50;;;;;;;;;;;;;;;;;;1039218;28;969;-41
2022/01/29 01:07:21;;;;;;;;;;;;;;;;;;1039394;28;934;-41
2022/01/29 01:07:51;;;;;;;;;;;;;;;;;;1039356;28;957;-41
2022/01/29 01:08:22;;;;;;;;;;;;;;;;;;1039267;28;1018;-41
2022/01/29 01:08:52;;;;;;;;;;;;;;;;;;1039413;28;882;-42
2022/01/29 01:09:22;;;;;;;;;;;;;;;;;;1039421;28;1037;-41
2022/01/29 01:09:53;;;;;;;;;;;;;;;;;;1039320;28;934;-41
2022/01/29 01:10:23;;;;;;;;;;;;;;;;;;1039241;28;907;-41
2022/01/29 01:10:54;;;;;;;;;;;;;;;;;;1039131;28;862;-41
2022/01/29 01:11:24;;;;;;;;;;;;;;;;;;1039462;28;922;-41
2022/01/29 01:11:54;;;;;;;;;;;;;;;;;;1039262;28;926;-41
2022/01/29 01:12:24;;;;;;;;;;;;;;;;;;1039482;28;878;-41
2022/01/29 01:12:55;;;;;;;;;;;;;;;;;;1039260;28;1092;-41
2022/01/29 01:13:25;;;;;;;;;;;;;;;;;;1039280;28;953;-41
2022/01/29 01:13:55;;;;;;;;;;;;;;;;;;1039381;28;949;-41
2022/01/29 01:14:26;;;;;;;;;;;;;;;;;;1039424;28;1055;-41
2022/01/29 01:14:56;;;;;;;;;;;;;;;;;;1039155;28;930;-41
2022/01/29 01:15:26;;;;;;;;;;;;;;;;;;1039434;28;958;-42
2022/01/29 01:15:57;;;;;;;;;;;;;;;;;;1039182;28;889;-42
2022/01/29 01:16:27;;;;;;;;;;;;;;;;;;1039430;28;1289;-42
2022/01/29 01:16:58;;;;;;;;;;;;;;;;;;1039165;28;968;-41
2022/01/29 01:17:28;;;;;;;;;;;;;;;;;;1039347;28;862;-42
2022/01/29 01:17:58;;;;;;;;;;;;;;;;;;1039272;28;1906;-42
2022/01/29 01:18:28;;;;;;;;;;;;;;;;;;1039229;28;890;-42
2022/01/29 01:18:59;;;;;;;;;;;;;;;;;;1039333;28;894;-42
2022/01/29 01:19:30;;;;;;;;;;;;;;;;;;1039384;28;946;-42
2022/01/29 01:20:00;;;;;;;;;;;;;;;;;;1039036;28;1143;-42
2022/01/29 01:20:31;;;;;;;;;;;;;;;;;;1039336;28;1027;-42
2022/01/29 01:21:01;;;;;;;;;;;;;;;;;;1039117;28;1689;-42
2022/01/29 01:21:31;;;;;;;;;;;;;;;;;;1039283;28;961;-42
2022/01/29 01:22:02;;;;;;;;;;;;;;;;;;1039389;28;1016;-42
2022/01/29 01:22:32;;;;;;;;;;;;;;;;;;1039183;28;942;-42
2022/01/29 01:23:02;;;;;;;;;;;;;;;;;;1039456;28;957;-42
2022/01/29 01:23:32;;;;;;;;;;;;;;;;;;1039183;28;941;-42
2022/01/29 01:24:03;;;;;;;;;;;;;;;;;;1039330;28;871;-42
2022/01/29 01:24:34;;;;;;;;;;;;;;;;;;1042003;28;1121;-42
2022/01/29 01:25:05;;;;;;;;;;;;;;;;;;1043269;28;962;-42
2022/01/29 01:25:35;;;;;;;;;;;;;;;;;;1043473;28;913;-42
2022/01/29 01:26:07;;;;;;;;;;;;;;;;;;1043344;28;945;-42
2022/01/29 01:26:37;;;;;;;;;;;;;;;;;;1043330;28;918;-42
2022/01/29 01:27:08;;;;;;;;;;;;;;;;;;1043502;28;882;-42
2022/01/29 01:27:38;;;;;;;;;;;;;;;;;;1043151;28;905;-41
2022/01/29 01:28:09;;;;;;;;;;;;;;;;;;1043356;28;1121;-42
2022/01/29 01:28:39;;;;;;;;;;;;;;;;;;1043273;28;1143;-42
2022/01/29 01:29:09;;;;;;;;;;;;;;;;;;1043294;28;897;-42
2022/01/29 01:29:40;;;;;;;;;;;;;;;;;;1038983;28;1331;-42
2022/01/29 01:30:11;;;;;;;;;;;;;;;;;;1038784;28;988;-41
2022/01/29 01:30:42;;;;;;;;;;;;;;;;;;1038925;28;942;-41
2022/01/29 01:31:12;;;;;;;;;;;;;;;;;;1039084;28;969;-42
2022/01/29 01:31:45;;;;;;;;;;;;;;;;;;1043178;28;1005;-42
2022/01/29 01:32:16;;;;;;;;;;;;;;;;;;1043535;28;909;-41
2022/01/29 01:32:46;;;;;;;;;;;;;;;;;;1043378;28;913;-41
2022/01/29 01:33:16;;;;;;;;;;;;;;;;;;1043305;28;834;-41
2022/01/29 01:33:48;;;;;;;;;;;;;;;;;;1043388;28;909;-41
2022/01/29 01:34:21;;;;;;;;;;;;;;;;;;1043235;28;949;-42
2022/01/29 01:34:54;;;;;;;;;;;;;;;;;;1043371;28;867;-42
2022/01/29 01:35:32;;;;;;;;;;;;;;;;;;1043592;28;1013;-41
2022/01/29 01:36:05;;;;;;;;;;;;;;;;;;1043238;28;1187;-42
2022/01/29 01:36:43;;;;;;;;;;;;;;;;;;1043216;28;786;-42
2022/01/29 01:37:23;;;;;;;;;;;;;;;;;;1043540;28;810;-42
2022/01/29 01:38:09;;;;;;;;;;;;;;;;;;1043090;28;1910;-42
2022/01/29 01:38:49;;;;;;;;;;;;;;;;;;1043478;28;922;-42
2022/01/29 01:39:23;;;;;;;;;;;;;;;;;;1043086;28;913;-41
2022/01/29 01:39:54;;;;;;;;;;;;;;;;;;1043112;28;851;-42
2022/01/29 01:40:26;;;;;;;;;;;;;;;;;;1043416;28;866;-41
2022/01/29 01:41:01;;;;;;;;;;;;;;;;;;1043014;28;853;-42
2022/01/29 01:41:38;;;;;;;;;;;;;;;;;;1043367;28;938;-42
2022/01/29 01:42:09;;;;;;;;;;;;;;;;;;1043457;28;1091;-41
2022/01/29 01:42:39;;;;;;;;;;;;;;;;;;1043192;28;997;-41
2022/01/29 01:43:10;;;;;;;;;;;;;;;;;;1043336;28;956;-41
2022/01/29 01:43:40;;;;;;;;;;;;;;;;;;1043610;28;1025;-41
2022/01/29 01:44:12;;;;;;;;;;;;;;;;;;1043001;28;1135;-41
2022/01/29 01:44:46;;;;;;;;;;;;;;;;;;1043592;28;914;-41
2022/01/29 01:45:16;;;;;;;;;;;;;;;;;;1043272;28;933;-41
2022/01/29 01:45:47;;;;;;;;;;;;;;;;;;1043279;28;961;-41
2022/01/29 01:46:17;;;;;;;;;;;;;;;;;;1043373;28;1027;-41
2022/01/29 01:46:47;;;;;;;;;;;;;;;;;;1043238;28;933;-41
2022/01/29 01:47:17;;;;;;;;;;;;;;;;;;1043233;28;847;-41
2022/01/29 01:47:48;;;;;;;;;;;;;;;;;;1043424;28;958;-41
2022/01/29 01:48:18;;;;;;;;;;;;;;;;;;1043040;28;890;-41
2022/01/29 01:48:49;;;;;;;;;;;;;;;;;;1043488;28;1056;-41
2022/01/29 01:49:19;;;;;;;;;;;;;;;;;;1043107;28;1098;-42
2022/01/29 01:49:49;;;;;;;;;;;;;;;;;;1043440;28;842;-41
2022/01/29 01:50:21;;;;;;;;;;;;;;;;;;1043089;28;961;-42
2022/01/29 01:50:52;;;;;;;;;;;;;;;;;;1043065;28;906;-42
2022/01/29 01:51:22;;;;;;;;;;;;;;;;;;1043520;28;921;-42
2022/01/29 01:51:53;;;;;;;;;;;;;;;;;;1043168;28;942;-42
2022/01/29 01:52:23;;;;;;;;;;;;;;;;;;1043238;28;925;-42
2022/01/29 01:52:53;;;;;;;;;;;;;;;;;;1043469;28;893;-41
2022/01/29 01:53:24;;;;;;;;;;;;;;;;;;1043116;28;1042;-42
2022/01/29 01:53:55;;;;;;;;;;;;;;;;;;1043458;28;783;-42
2022/01/29 01:54:25;;;;;;;;;;;;;;;;;;1043193;28;1044;-41
2022/01/29 01:54:55;;;;;;;;;;;;;;;;;;1043208;28;953;-41
2022/01/29 01:55:26;;;;;;;;;;;;;;;;;;1043393;28;1015;-41
2022/01/29 01:55:56;;;;;;;;;;;;;;;;;;1043135;28;850;-41
2022/01/29 01:56:26;;;;;;;;;;;;;;;;;;1043306;28;878;-41
2022/01/29 01:56:57;;;;;;;;;;;;;;;;;;1043213;28;877;-41
2022/01/29 01:57:28;;;;;;;;;;;;;;;;;;1043192;28;1000;-42
2022/01/29 01:57:58;;;;;;;;;;;;;;;;;;1043349;28;2349;-41
2022/01/29 01:58:29;;;;;;;;;;;;;;;;;;1043134;28;878;-42
2022/01/29 01:58:59;;;;;;;;;;;;;;;;;;1041153;28;1003;-41
2022/01/29 01:59:30;;;;;;;;;;;;;;;;;;1039240;28;1697;-41
2022/01/29 02:00:01;;;;;;;;;;;;;;;;;;1039220;28;882;-41
2022/01/29 02:00:31;;;;;;;;;;;;;;;;;;1039247;28;1144;-41
2022/01/29 02:01:02;;;;;;;;;;;;;;;;;;1038963;28;969;-41
2022/01/29 02:01:32;;;;;;;;;;;;;;;;;;1039166;28;969;-42
2022/01/29 02:02:02;;;;;;;;;;;;;;;;;;1039236;28;933;-41
2022/01/29 02:02:33;;;;;;;;;;;;;;;;;;1039009;28;1021;-42
2022/01/29 02:03:03;;;;;;;;;;;;;;;;;;1039190;28;1072;-42
2022/01/29 02:03:33;;;;;;;;;;;;;;;;;;1039094;28;892;-42
2022/01/29 02:04:04;;;;;;;;;;;;;;;;;;1039106;28;953;-42
2022/01/29 02:04:34;;;;;;;;;;;;;;;;;;1039183;28;1057;-42
2022/01/29 02:05:05;;;;;;;;;;;;;;;;;;1038897;28;974;-42
2022/01/29 02:05:35;;;;;;;;;;;;;;;;;;1039187;28;937;-41
2022/01/29 02:06:05;;;;;;;;;;;;;;;;;;1039136;28;1060;-42
2022/01/29 02:06:36;;;;;;;;;;;;;;;;;;1039022;28;942;-41
2022/01/29 02:07:06;;;;;;;;;;;;;;;;;;1039143;28;905;-42
2022/01/29 02:07:37;;;;;;;;;;;;;;;;;;1038986;28;906;-41
2022/01/29 02:08:08;;;;;;;;;;;;;;;;;;1039318;28;843;-42
2022/01/29 02:08:39;;;;;;;;;;;;;;;;;;1039160;28;910;-42
2022/01/29 02:09:13;;;;;;;;;;;;;;;;;;1038967;28;977;-42
2022/01/29 02:09:43;;;;;;;;;;;;;;;;;;1039310;28;799;-41
2022/01/29 02:10:14;;;;;;;;;;;;;;;;;;1038949;28;1081;-41
2022/01/29 02:10:46;;;;;;;;;;;;;;;;;;1039013;28;846;-39
2022/01/29 02:11:17;;;;;;;;;;;;;;;;;;1039115;28;926;-41
2022/01/29 02:11:52;;;;;;;;;;;;;;;;;;1039061;28;973;-41
2022/01/29 02:12:26;;;;;;;;;;;;;;;;;;1039108;28;891;-41
2022/01/29 02:13:01;;;;;;;;;;;;;;;;;;1039281;28;933;-41
2022/01/29 02:13:32;;;;;;;;;;;;;;;;;;1038761;28;946;-41
2022/01/29 02:14:02;;;;;;;;;;;;;;;;;;1034879;28;984;-41
2022/01/29 02:14:34;;;;;;;;;;;;;;;;;;1034615;28;973;-41
2022/01/29 02:15:05;;;;;;;;;;;;;;;;;;1034556;28;890;-41
2022/01/29 02:15:36;;;;;;;;;;;;;;;;;;1035170;28;946;-41
2022/01/29 02:16:06;;;;;;;;;;;;;;;;;;1039017;28;1252;-42
2022/01/29 02:16:38;;;;;;;;;;;;;;;;;;1039078;28;858;-41
2022/01/29 02:17:09;;;;;;;;;;;;;;;;;;1039273;28;993;-41
2022/01/29 02:17:39;;;;;;;;;;;;;;;;;;1038751;28;882;-41
2022/01/29 02:18:14;;;;;;;;;;;;;;;;;;1039223;28;1910;-41
2022/01/29 02:18:45;;;;;;;;;;;;;;;;;;1039032;28;981;-41
2022/01/29 02:19:15;;;;;;;;;;;;;;;;;;1038891;28;933;-41
2022/01/29 02:19:45;;;;;;;;;;;;;;;;;;1039226;28;1633;-41
2022/01/29 02:20:17;;;;;;;;;;;;;;;;;;1038939;28;886;-41
2022/01/29 02:20:48;;;;;;;;;;;;;;;;;;1038842;28;985;-40
2022/01/29 02:21:19;;;;;;;;;;;;;;;;;;1039146;28;1035;-41
2022/01/29 02:21:49;;;;;;;;;;;;;;;;;;1038899;28;1019;-41
2022/01/29 02:22:20;;;;;;;;;;;;;;;;;;1039180;28;933;-41
2022/01/29 02:22:50;;;;;;;;;;;;;;;;;;1039008;28;913;-41
2022/01/29 02:23:21;;;;;;;;;;;;;;;;;;1038939;28;783;-41
2022/01/29 02:23:51;;;;;;;;;;;;;;;;;;1039285;28;996;-41
2022/01/29 02:24:21;;;;;;;;;;;;;;;;;;1035472;28;1185;-41
2022/01/29 02:24:52;;;;;;;;;;;;;;;;;;1038869;28;957;-42
2022/01/29 02:25:29;;;;;;;;;;;;;;;;;;1038799;28;929;-41
2022/01/29 02:25:59;;;;;;;;;;;;;;;;;;1039483;28;970;-42
2022/01/29 02:26:29;;;;;;;;;;;;;;;;;;1043295;28;873;-41
2022/01/29 02:27:00;;;;;;;;;;;;;;;;;;1043226;28;837;-41
2022/01/29 02:27:30;;;;;;;;;;;;;;;;;;1043105;28;913;-41
2022/01/29 02:28:03;;;;;;;;;;;;;;;;;;1043115;28;1025;-42
2022/01/29 02:28:33;;;;;;;;;;;;;;;;;;1042768;28;902;-41
2022/01/29 02:29:04;;;;;;;;;;;;;;;;;;1043180;28;853;-41
2022/01/29 02:29:35;;;;;;;;;;;;;;;;;;1043277;28;987;-41
2022/01/29 02:30:05;;;;;;;;;;;;;;;;;;1042955;28;980;-41
2022/01/29 02:30:38;;;;;;;;;;;;;;;;;;1043125;28;822;-41
2022/01/29 02:31:08;;;;;;;;;;;;;;;;;;1043206;28;999;-41
2022/01/29 02:31:49;;;;;;;;;;;;;;;;;;1043008;28;983;-41
2022/01/29 02:32:19;;;;;;;;;;;;;;;;;;1043188;28;1027;-41
2022/01/29 02:32:49;;;;;;;;;;;;;;;;;;1043168;28;1075;-42
2022/01/29 02:33:20;;;;;;;;;;;;;;;;;;1043051;28;885;-41
2022/01/29 02:33:50;;;;;;;;;;;;;;;;;;1043224;28;980;-41
2022/01/29 02:34:21;;;;;;;;;;;;;;;;;;1042953;28;953;-41
2022/01/29 02:34:51;;;;;;;;;;;;;;;;;;1043246;28;941;-41
2022/01/29 02:35:21;;;;;;;;;;;;;;;;;;1043071;28;898;-42
2022/01/29 02:35:53;;;;;;;;;;;;;;;;;;1043193;28;830;-41
2022/01/29 02:36:24;;;;;;;;;;;;;;;;;;1043223;28;977;-42
2022/01/29 02:36:55;;;;;;;;;;;;;;;;;;1043046;28;945;-41
2022/01/29 02:37:25;;;;;;;;;;;;;;;;;;1043061;28;941;-41
2022/01/29 02:37:57;;;;;;;;;;;;;;;;;;1043115;28;1914;-41
2022/01/29 02:38:27;;;;;;;;;;;;;;;;;;1042836;28;806;-42
2022/01/29 02:38:59;;;;;;;;;;;;;;;;;;1039310;28;926;-41
2022/01/29 02:39:30;;;;;;;;;;;;;;;;;;1034722;28;902;-41
2022/01/29 02:40:00;;;;;;;;;;;;;;;;;;1034959;28;965;-41
2022/01/29 02:40:35;;;;;;;;;;;;;;;;;;1032302;28;1124;-41
2022/01/29 02:41:06;;;;;;;;;;;;;;;;;;1034755;28;1009;-41
2022/01/29 02:41:40;;;;;;;;;;;;;;;;;;1034918;28;879;-41
2022/01/29 02:42:10;;;;;;;;;;;;;;;;;;1034890;28;887;-41
2022/01/29 02:42:40;;;;;;;;;;;;;;;;;;1034683;28;965;-41
2022/01/29 02:43:12;;;;;;;;;;;;;;;;;;1035230;28;1050;-42
2022/01/29 02:43:48;;;;;;;;;;;;;;;;;;1038952;28;997;-41
2022/01/29 02:44:21;;;;;;;;;;;;;;;;;;1038754;28;1006;-42
2022/01/29 02:44:52;;;;;;;;;;;;;;;;;;1039163;28;800;-41
2022/01/29 02:45:22;;;;;;;;;;;;;;;;;;1038886;28;1486;-41
2022/01/29 02:45:53;;;;;;;;;;;;;;;;;;1038829;28;938;-41
2022/01/29 02:46:42;;;;;;;;;;;;;;;;;;1039103;28;1016;-41
2022/01/29 02:47:27;;;;;;;;;;;;;;;;;;1038997;28;914;-41
2022/01/29 02:47:57;;;;;;;;;;;;;;;;;;1038962;28;965;-42
2022/01/29 02:48:27;;;;;;;;;;;;;;;;;;1038561;28;897;-42
2022/01/29 02:48:58;;;;;;;;;;;;;;;;;;1039261;28;1028;-41
2022/01/29 02:49:28;;;;;;;;;;;;;;;;;;1038893;28;1057;-41
2022/01/29 02:49:58;;;;;;;;;;;;;;;;;;1038951;28;1296;-41
2022/01/29 02:50:29;;;;;;;;;;;;;;;;;;1038951;28;1013;-42
2022/01/29 02:50:59;;;;;;;;;;;;;;;;;;1038746;28;910;-41
2022/01/29 02:51:29;;;;;;;;;;;;;;;;;;1039144;28;938;-41
2022/01/29 02:52:00;;;;;;;;;;;;;;;;;;1038975;28;882;-41
2022/01/29 02:52:30;;;;;;;;;;;;;;;;;;1034424;28;1252;-41
2022/01/29 02:53:00;;;;;;;;;;;;;;;;;;1034737;28;1066;-41
2022/01/29 02:53:31;;;;;;;;;;;;;;;;;;1034306;28;1034;-41
2022/01/29 02:54:01;;;;;;;;;;;;;;;;;;1034676;28;961;-41
2022/01/29 02:54:34;;;;;;;;;;;;;;;;;;1038953;28;1021;-42
2022/01/29 02:55:05;;;;;;;;;;;;;;;;;;1038752;28;940;-41
2022/01/29 02:55:35;;;;;;;;;;;;;;;;;;1039079;28;897;-41
2022/01/29 02:56:07;;;;;;;;;;;;;;;;;;1038830;28;882;-41
2022/01/29 02:56:38;;;;;;;;;;;;;;;;;;1038952;28;839;-41
2022/01/29 02:57:08;;;;;;;;;;;;;;;;;;1039176;28;954;-41
2022/01/29 02:57:38;;;;;;;;;;;;;;;;;;1038484;28;906;-41
2022/01/29 02:58:09;;;;;;;;;;;;;;;;;;1039261;28;1906;-41
2022/01/29 02:58:39;;;;;;;;;;;;;;;;;;1038829;28;886;-41
2022/01/29 02:59:09;;;;;;;;;;;;;;;;;;1038949;28;960;-41
2022/01/29 02:59:40;;;;;;;;;;;;;;;;;;1038917;28;1001;-41
2022/01/29 03:00:11;;;;;;;;;;;;;;;;;;1038771;28;895;-41
2022/01/29 03:00:41;;;;;;;;;;;;;;;;;;1038942;28;882;-41
2022/01/29 03:01:12;;;;;;;;;;;;;;;;;;1039005;28;1039;-41
2022/01/29 03:01:42;;;;;;;;;;;;;;;;;;1038691;28;790;-41
2022/01/29 03:02:12;;;;;;;;;;;;;;;;;;1039028;28;924;-41
2022/01/29 03:02:43;;;;;;;;;;;;;;;;;;1038661;28;908;-41
2022/01/29 03:03:13;;;;;;;;;;;;;;;;;;1039120;28;909;-41
2022/01/29 03:03:43;;;;;;;;;;;;;;;;;;1038867;28;878;-41
2022/01/29 03:04:14;;;;;;;;;;;;;;;;;;1038780;28;981;-41
2022/01/29 03:04:44;;;;;;;;;;;;;;;;;;1038982;28;1064;-41
2022/01/29 03:05:14;;;;;;;;;;;;;;;;;;1038842;28;1075;-42
2022/01/29 03:05:45;;;;;;;;;;;;;;;;;;1038879;28;957;-42
2022/01/29 03:06:15;;;;;;;;;;;;;;;;;;1039051;28;1076;-41
2022/01/29 03:06:45;;;;;;;;;;;;;;;;;;1038688;28;973;-41
2022/01/29 03:07:16;;;;;;;;;;;;;;;;;;1039058;28;1075;-41
2022/01/29 03:07:46;;;;;;;;;;;;;;;;;;1038815;28;807;-41
2022/01/29 03:08:16;;;;;;;;;;;;;;;;;;1038964;28;910;-42
2022/01/29 03:08:47;;;;;;;;;;;;;;;;;;1038964;28;996;-42
2022/01/29 03:09:17;;;;;;;;;;;;;;;;;;1038886;28;996;-42
2022/01/29 03:09:47;;;;;;;;;;;;;;;;;;1039050;28;910;-42
2022/01/29 03:10:18;;;;;;;;;;;;;;;;;;1038754;28;886;-42
2022/01/29 03:10:48;;;;;;;;;;;;;;;;;;1038739;28;943;-42
2022/01/29 03:11:19;;;;;;;;;;;;;;;;;;1039001;28;954;-42
2022/01/29 03:11:50;;;;;;;;;;;;;;;;;;1038723;28;984;-42
2022/01/29 03:12:20;;;;;;;;;;;;;;;;;;1038906;28;810;-41
2022/01/29 03:12:51;;;;;;;;;;;;;;;;;;1038906;28;1055;-41
2022/01/29 03:13:21;;;;;;;;;;;;;;;;;;1038798;28;1634;-42
2022/01/29 03:13:52;;;;;;;;;;;;;;;;;;1038976;28;956;-42
2022/01/29 03:14:22;;;;;;;;;;;;;;;;;;1038680;28;953;-41
2022/01/29 03:14:53;;;;;;;;;;;;;;;;;;1039059;28;942;-42
2022/01/29 03:15:23;;;;;;;;;;;;;;;;;;1038895;28;993;-41
2022/01/29 03:15:53;;;;;;;;;;;;;;;;;;1038885;28;901;-42
2022/01/29 03:16:24;;;;;;;;;;;;;;;;;;1038857;28;1181;-42
2022/01/29 03:16:54;;;;;;;;;;;;;;;;;;1038713;28;972;-42
2022/01/29 03:17:24;;;;;;;;;;;;;;;;;;1038882;28;1740;-42
2022/01/29 03:17:55;;;;;;;;;;;;;;;;;;1038923;28;1987;-42
2022/01/29 03:18:25;;;;;;;;;;;;;;;;;;1038834;28;937;-41
2022/01/29 03:18:55;;;;;;;;;;;;;;;;;;1038883;28;1052;-42
2022/01/29 03:19:26;;;;;;;;;;;;;;;;;;1038769;28;933;-42
2022/01/29 03:19:56;;;;;;;;;;;;;;;;;;1039068;28;806;-42
2022/01/29 03:20:26;;;;;;;;;;;;;;;;;;1038688;28;879;-42
2022/01/29 03:20:57;;;;;;;;;;;;;;;;;;1038799;28;946;-42
2022/01/29 03:21:27;;;;;;;;;;;;;;;;;;1038881;28;942;-41
2022/01/29 03:21:57;;;;;;;;;;;;;;;;;;1038827;28;878;-42
2022/01/29 03:22:28;;;;;;;;;;;;;;;;;;1038976;28;925;-41
2022/01/29 03:22:58;;;;;;;;;;;;;;;;;;1038777;28;933;-42
2022/01/29 03:23:29;;;;;;;;;;;;;;;;;;1038772;28;1012;-41
2022/01/29 03:23:59;;;;;;;;;;;;;;;;;;1039049;28;941;-41
2022/01/29 03:24:29;;;;;;;;;;;;;;;;;;1040974;28;1165;-42
2022/01/29 03:24:59;;;;;;;;;;;;;;;;;;1042973;28;846;-41
2022/01/29 03:25:30;;;;;;;;;;;;;;;;;;1043101;28;956;-41
2022/01/29 03:26:00;;;;;;;;;;;;;;;;;;1042795;28;977;-42
2022/01/29 03:26:31;;;;;;;;;;;;;;;;;;1043203;28;830;-42
2022/01/29 03:27:02;;;;;;;;;;;;;;;;;;1042773;28;965;-41
2022/01/29 03:27:33;;;;;;;;;;;;;;;;;;1043119;28;842;-42
2022/01/29 03:28:03;;;;;;;;;;;;;;;;;;1042791;28;1287;-42
2022/01/29 03:28:33;;;;;;;;;;;;;;;;;;1042845;28;1084;-42
2022/01/29 03:29:04;;;;;;;;;;;;;;;;;;1043002;28;917;-42
2022/01/29 03:29:34;;;;;;;;;;;;;;;;;;1042956;28;969;-42
2022/01/29 03:30:05;;;;;;;;;;;;;;;;;;1042912;28;897;-42
2022/01/29 03:30:35;;;;;;;;;;;;;;;;;;1042951;28;1067;-42
2022/01/29 03:31:06;;;;;;;;;;;;;;;;;;1042809;28;865;-42
2022/01/29 03:31:36;;;;;;;;;;;;;;;;;;1043104;28;894;-42
2022/01/29 03:32:07;;;;;;;;;;;;;;;;;;1042989;28;925;-42
2022/01/29 03:32:37;;;;;;;;;;;;;;;;;;1042865;28;912;-42
2022/01/29 03:33:08;;;;;;;;;;;;;;;;;;1043166;28;1107;-42
2022/01/29 03:33:38;;;;;;;;;;;;;;;;;;1042674;28;854;-42
2022/01/29 03:34:08;;;;;;;;;;;;;;;;;;1043182;28;926;-42
2022/01/29 03:34:39;;;;;;;;;;;;;;;;;;1042850;28;1040;-41
2022/01/29 03:35:10;;;;;;;;;;;;;;;;;;1042887;28;1089;-43
2022/01/29 03:35:40;;;;;;;;;;;;;;;;;;1043057;28;866;-42
2022/01/29 03:36:11;;;;;;;;;;;;;;;;;;1042896;28;894;-41
2022/01/29 03:36:41;;;;;;;;;;;;;;;;;;1042928;28;855;-41
2022/01/29 03:37:11;;;;;;;;;;;;;;;;;;1043110;28;984;-41
2022/01/29 03:37:42;;;;;;;;;;;;;;;;;;1042606;28;957;-42